Home > Products > Valid Products > TAF

000
FTUS45 KBOI 251120
TAFTWF
TAF
KTWF 251120Z 2512/2612 20012KT P6SM OVC070
     FM251700 27010KT P6SM -SHRA OVC050
     FM260500 23015G25KT P6SM BKN100=



000
FTUS45 KBOI 251120
TAFMYL
TAF
KMYL 251120Z 2512/2612 VRB03KT P6SM OVC060
     FM252000 30006KT P6SM -SHRA OVC040
     FM260400 33008KT P6SM SCT040 BKN080=



000
FTUS45 KBOI 251120
TAFBOI
TAF
KBOI 251120Z 2512/2612 VRB03KT P6SM SCT200
     FM251800 30010KT P6SM SCT070 BKN120=



000
FTUS45 KBOI 251120
TAFBNO
TAF
KBNO 251120Z 2512/2612 26010KT P6SM BKN200
     FM251800 26010KT P6SM -SHRA SCT040 BKN060
     FM260300 30008KT P6SM SCT100=



000
FTUS45 KBOI 251120
TAFJER
TAF
KJER 251120Z 2512/2612 19007KT P6SM BKN100
     FM251800 25010KT P6SM -SHRA OVC040
     FM260000 25015G25KT P6SM OVC100=



000
FTUS45 KBOI 251120
TAFBKE
TAF
KBKE 251120Z 2512/2612 VRB05KT P6SM BKN200
     FM252100 32013KT P6SM -SHRA SCT050 BKN100
     FM260200 32010KT P6SM SCT100=



000
FTUS45 KBOI 251120
TAFBNO
TAF
KBNO 251120Z 2512/2612 26010KT P6SM BKN200
     FM251800 26010KT P6SM -SHRA SCT040 BKN060
     FM260300 30008KT P6SM SCT100=



000
FTUS45 KBOI 251120
TAFBKE
TAF
KBKE 251120Z 2512/2612 VRB05KT P6SM BKN200
     FM252100 32013KT P6SM -SHRA SCT050 BKN100
     FM260200 32010KT P6SM SCT100=



000
FTUS45 KBOI 251120
TAFMYL
TAF
KMYL 251120Z 2512/2612 VRB03KT P6SM OVC060
     FM252000 30006KT P6SM -SHRA OVC040
     FM260400 33008KT P6SM SCT040 BKN080=



000
FTUS45 KBOI 251120
TAFJER
TAF
KJER 251120Z 2512/2612 19007KT P6SM BKN100
     FM251800 25010KT P6SM -SHRA OVC040
     FM260000 25015G25KT P6SM OVC100=



000
FTUS45 KBOI 251120
TAFBOI
TAF
KBOI 251120Z 2512/2612 VRB03KT P6SM SCT200
     FM251800 30010KT P6SM SCT070 BKN120=



000
FTUS45 KBOI 251120
TAFTWF
TAF
KTWF 251120Z 2512/2612 20012KT P6SM OVC070
     FM251700 27010KT P6SM -SHRA OVC050
     FM260500 23015G25KT P6SM BKN100=



000
FTUS45 KBOI 250520
TAFMYL
TAF
KMYL 250520Z 2506/2606 VRB06KT P6SM SCT040 SCT150
      TEMPO 2510/2514 3SM BR BKN007
     FM252200 32008KT P6SM VCSH BKN040=



000
FTUS45 KBOI 250520
TAFBKE
TAF
KBKE 250520Z 2506/2606 VRB05KT P6SM FEW120 OVC200
     FM251300 31006KT P6SM VCSH OVC050
     FM252100 32013KT P6SM BKN100=



000
FTUS45 KBOI 250520
TAFJER
TAF
KJER 250520Z 2506/2606 22010KT P6SM OVC100
     FM251700 24011KT P6SM VCSH OVC060
     FM260400 22015G25KT P6SM OVC100=



000
FTUS45 KBOI 250520
TAFBOI
TAF
KBOI 250520Z 2506/2606 31006KT P6SM SCT080 BKN200
     FM251800 31008G18KT P6SM VCSH SCT070 OVC100
     FM252300 31010KT P6SM BKN120=



000
FTUS45 KBOI 250520
TAFMYL
TAF
KMYL 250520Z 2506/2606 VRB06KT P6SM SCT040 SCT150
      TEMPO 2510/2514 3SM BR BKN007
     FM252200 32008KT P6SM VCSH BKN040=



000
FTUS45 KBOI 250520
TAFBNO
TAF
KBNO 250520Z 2506/2606 VRB05KT P6SM SCT070 OVC100
     FM251300 26006KT P6SM -SHRA BKN050 OVC100
     FM252100 28013G23KT P6SM BKN080
     FM260300 30008KT P6SM SCT200=



000
FTUS45 KBOI 250520
TAFBKE
TAF
KBKE 250520Z 2506/2606 VRB05KT P6SM FEW120 OVC200
     FM251300 31006KT P6SM VCSH OVC050
     FM252100 32013KT P6SM BKN100=



000
FTUS45 KBOI 250520
TAFTWF
TAF
KTWF 250520Z 2506/2606 21011KT P6SM OVC100
     FM251700 26011KT P6SM -SHRA OVC040
     FM260300 22015G25KT P6SM OVC100=



000
FTUS45 KBOI 250520
TAFBNO
TAF
KBNO 250520Z 2506/2606 VRB05KT P6SM SCT070 OVC100
     FM251300 26006KT P6SM -SHRA BKN050 OVC100
     FM252100 28013G23KT P6SM BKN080
     FM260300 30008KT P6SM SCT200=



000
FTUS45 KBOI 250520
TAFJER
TAF
KJER 250520Z 2506/2606 22010KT P6SM OVC100
     FM251700 24011KT P6SM VCSH OVC060
     FM260400 22015G25KT P6SM OVC100=



000
FTUS45 KBOI 250520
TAFBNO
TAF
KBNO 250520Z 2506/2606 VRB05KT P6SM SCT070 OVC100
     FM251300 26006KT P6SM -SHRA BKN050 OVC100
     FM252100 28013G23KT P6SM BKN080
     FM260300 30008KT P6SM SCT200=



000
FTUS45 KBOI 250520
TAFMYL
TAF
KMYL 250520Z 2506/2606 VRB06KT P6SM SCT040 SCT150
      TEMPO 2510/2514 3SM BR BKN007
     FM252200 32008KT P6SM VCSH BKN040=



000
FTUS45 KBOI 250520
TAFBKE
TAF
KBKE 250520Z 2506/2606 VRB05KT P6SM FEW120 OVC200
     FM251300 31006KT P6SM VCSH OVC050
     FM252100 32013KT P6SM BKN100=



000
FTUS45 KBOI 250520
TAFJER
TAF
KJER 250520Z 2506/2606 22010KT P6SM OVC100
     FM251700 24011KT P6SM VCSH OVC060
     FM260400 22015G25KT P6SM OVC100=



000
FTUS45 KBOI 250520
TAFBKE
TAF
KBKE 250520Z 2506/2606 VRB05KT P6SM FEW120 OVC200
     FM251300 31006KT P6SM VCSH OVC050
     FM252100 32013KT P6SM BKN100=



000
FTUS45 KBOI 250520
TAFBOI
TAF
KBOI 250520Z 2506/2606 31006KT P6SM SCT080 BKN200
     FM251800 31008G18KT P6SM VCSH SCT070 OVC100
     FM252300 31010KT P6SM BKN120=



000
FTUS45 KBOI 250520
TAFTWF
TAF
KTWF 250520Z 2506/2606 21011KT P6SM OVC100
     FM251700 26011KT P6SM -SHRA OVC040
     FM260300 22015G25KT P6SM OVC100=



000
FTUS45 KBOI 250520
TAFMYL
TAF
KMYL 250520Z 2506/2606 VRB06KT P6SM SCT040 SCT150
      TEMPO 2510/2514 3SM BR BKN007
     FM252200 32008KT P6SM VCSH BKN040=



000
FTUS45 KBOI 250520
TAFBOI
TAF
KBOI 250520Z 2506/2606 31006KT P6SM SCT080 BKN200
     FM251800 31008G18KT P6SM VCSH SCT070 OVC100
     FM252300 31010KT P6SM BKN120=



000
FTUS45 KBOI 250520
TAFTWF
TAF
KTWF 250520Z 2506/2606 21011KT P6SM OVC100
     FM251700 26011KT P6SM -SHRA OVC040
     FM260300 22015G25KT P6SM OVC100=



000
FTUS45 KBOI 250520
TAFBNO
TAF
KBNO 250520Z 2506/2606 VRB05KT P6SM SCT070 OVC100
     FM251300 26006KT P6SM -SHRA BKN050 OVC100
     FM252100 28013G23KT P6SM BKN080
     FM260300 30008KT P6SM SCT200=



000
FTUS45 KBOI 250520
TAFTWF
TAF
KTWF 250520Z 2506/2606 21011KT P6SM OVC100
     FM251700 26011KT P6SM -SHRA OVC040
     FM260300 22015G25KT P6SM OVC100=



000
FTUS45 KBOI 242320
TAFBNO
TAF
KBNO 242320Z 2500/2524 26010KT P6SM SCT200
     FM250900 26008KT P6SM VCSH SCT050 BKN100
      TEMPO 2512/2516 -SHRA
     FM252000 26011KT P6SM BKN080=



000
FTUS45 KBOI 242320
TAFBOI
TAF
KBOI 242320Z 2500/2524 31006KT P6SM OVC200
     FM252100 31007G14KT P6SM -SHRA OVC070=



000
FTUS45 KBOI 242320
TAFTWF
TAF
KTWF 242320Z 2500/2524 25014G22KT P6SM VCSH SCT020 BKN070
     FM250300 21010KT P6SM BKN110
     FM251700 27010KT P6SM -SHRA OVC040=



000
FTUS45 KBOI 242320
TAFBOI
TAF
KBOI 242320Z 2500/2524 31006KT P6SM OVC200
     FM252100 31007G14KT P6SM -SHRA OVC070=



000
FTUS45 KBOI 242320
TAFMYL
TAF
KMYL 242320Z 2500/2524 VRB06KT P6SM SCT040 SCT150
      TEMPO 2510/2514 3SM BR BKN007
     FM252100 30006KT P6SM VCSH BKN040=



000
FTUS45 KBOI 242320
TAFBKE
TAF
KBKE 242320Z 2500/2524 32010KT P6SM SCT200
     FM250500 VRB05KT P6SM SCT100
     FM251300 31006KT P6SM VCSH OVC050
     FM252100 32011KT P6SM BKN100=



000
FTUS45 KBOI 242320
TAFBKE
TAF
KBKE 242320Z 2500/2524 32010KT P6SM SCT200
     FM250500 VRB05KT P6SM SCT100
     FM251300 31006KT P6SM VCSH OVC050
     FM252100 32011KT P6SM BKN100=



000
FTUS45 KBOI 242320
TAFBNO
TAF
KBNO 242320Z 2500/2524 26010KT P6SM SCT200
     FM250900 26008KT P6SM VCSH SCT050 BKN100
      TEMPO 2512/2516 -SHRA
     FM252000 26011KT P6SM BKN080=



000
FTUS45 KBOI 242320
TAFTWF
TAF
KTWF 242320Z 2500/2524 25014G22KT P6SM VCSH SCT020 BKN070
     FM250300 21010KT P6SM BKN110
     FM251700 27010KT P6SM -SHRA OVC040=



000
FTUS45 KBOI 242320
TAFJER
TAF
KJER 242320Z 2500/2524 23017KT P6SM FEW030 OVC060
     FM250400 22010KT P6SM SCT120
     FM251700 24010KT P6SM VCSH OVC050=



000
FTUS45 KBOI 242320
TAFMYL
TAF
KMYL 242320Z 2500/2524 VRB06KT P6SM SCT040 SCT150
      TEMPO 2510/2514 3SM BR BKN007
     FM252100 30006KT P6SM VCSH BKN040=



000
FTUS45 KBOI 242320
TAFJER
TAF
KJER 242320Z 2500/2524 23017KT P6SM FEW030 OVC060
     FM250400 22010KT P6SM SCT120
     FM251700 24010KT P6SM VCSH OVC050=



000
FTUS45 KBOI 242114 AAA
TAFMYL
TAF AMD
KMYL 242114Z 2421/2518 29005KT P6SM SCT010 SCT030
     FM250200 35006KT P6SM SCT050=



000
FTUS45 KBOI 242114 AAA
TAFMYL
TAF AMD
KMYL 242114Z 2421/2518 29005KT P6SM SCT010 SCT030
     FM250200 35006KT P6SM SCT050=



000
FTUS45 KBOI 241730
TAFBKE
TAF
KBKE 241730Z 2418/2518 33013G20KT P6SM BKN100
     FM250500 VRB05KT P6SM SCT100=



000
FTUS45 KBOI 241730
TAFMYL
TAF
KMYL 241730Z 2418/2518 VRB04KT P6SM -RA OVC007
     FM242000 29005KT P6SM -SHRA BKN010 OVC040
     FM250200 35006KT P6SM SCT050=



000
FTUS45 KBOI 241730
TAFBKE
TAF
KBKE 241730Z 2418/2518 33013G20KT P6SM BKN100
     FM250500 VRB05KT P6SM SCT100=



000
FTUS45 KBOI 241730
TAFJER
TAF
KJER 241730Z 2418/2518 24018G25KT P6SM -SHRA OVC015
     FM242100 25018G25KT P6SM SCT020 OVC100
     FM250300 22010KT P6SM SCT120=



000
FTUS45 KBOI 241730
TAFMYL
TAF
KMYL 241730Z 2418/2518 VRB04KT P6SM -RA OVC007
     FM242000 29005KT P6SM -SHRA BKN010 OVC040
     FM250200 35006KT P6SM SCT050=



000
FTUS45 KBOI 241730
TAFBNO
TAF
KBNO 241730Z 2418/2518 29015KT P6SM SCT120
     FM250600 30005KT P6SM VCSH SCT050 BKN100=



000
FTUS45 KBOI 241730
TAFBOI
TAF
KBOI 241730Z 2418/2518 31011KT P6SM OVC100
     FM250400 28005KT P6SM BKN120=



000
FTUS45 KBOI 241730
TAFJER
TAF
KJER 241730Z 2418/2518 24018G25KT P6SM -SHRA OVC015
     FM242100 25018G25KT P6SM SCT020 OVC100
     FM250300 22010KT P6SM SCT120=



000
FTUS45 KBOI 241730
TAFTWF
TAF
KTWF 241730Z 2418/2518 25014G23KT P6SM -SHRA BKN015 OVC030
     FM242100 27018G26KT P6SM SCT020 OVC100
     FM250400 19010KT P6SM BKN120=



000
FTUS45 KBOI 241730
TAFBOI
TAF
KBOI 241730Z 2418/2518 31011KT P6SM OVC100
     FM250400 28005KT P6SM BKN120=



000
FTUS45 KBOI 241730
TAFJER
TAF
KJER 241730Z 2418/2518 24018G25KT P6SM -SHRA OVC015
     FM242100 25018G25KT P6SM SCT020 OVC100
     FM250300 22010KT P6SM SCT120=



000
FTUS45 KBOI 241730
TAFTWF
TAF
KTWF 241730Z 2418/2518 25014G23KT P6SM -SHRA BKN015 OVC030
     FM242100 27018G26KT P6SM SCT020 OVC100
     FM250400 19010KT P6SM BKN120=



000
FTUS45 KBOI 241730
TAFBNO
TAF
KBNO 241730Z 2418/2518 29015KT P6SM SCT120
     FM250600 30005KT P6SM VCSH SCT050 BKN100=



000
FTUS45 KBOI 241730
TAFBNO
TAF
KBNO 241730Z 2418/2518 29015KT P6SM SCT120
     FM250600 30005KT P6SM VCSH SCT050 BKN100=



000
FTUS45 KBOI 241730
TAFMYL
TAF
KMYL 241730Z 2418/2518 VRB04KT P6SM -RA OVC007
     FM242000 29005KT P6SM -SHRA BKN010 OVC040
     FM250200 35006KT P6SM SCT050=



000
FTUS45 KBOI 241730
TAFBKE
TAF
KBKE 241730Z 2418/2518 33013G20KT P6SM BKN100
     FM250500 VRB05KT P6SM SCT100=



000
FTUS45 KBOI 241730
TAFMYL
TAF
KMYL 241730Z 2418/2518 VRB04KT P6SM -RA OVC007
     FM242000 29005KT P6SM -SHRA BKN010 OVC040
     FM250200 35006KT P6SM SCT050=



000
FTUS45 KBOI 241730
TAFBKE
TAF
KBKE 241730Z 2418/2518 33013G20KT P6SM BKN100
     FM250500 VRB05KT P6SM SCT100=



000
FTUS45 KBOI 241541 AAA
TAFTWF
TAF AMD
KTWF 241541Z 2416/2512 25015KT P6SM OVC015
     FM241630 25014G23KT P6SM -SHRA OVC010
     FM242000 27018G26KT P6SM OVC100
     FM250400 20010KT P6SM SCT120=



000
FTUS45 KBOI 241541 AAA
TAFTWF
TAF AMD
KTWF 241541Z 2416/2512 25015KT P6SM OVC015
     FM241630 25014G23KT P6SM -SHRA OVC010
     FM242000 27018G26KT P6SM OVC100
     FM250400 20010KT P6SM SCT120=



000
FTUS45 KBOI 241540 AAA
TAFJER
TAF AMD
KJER 241540Z 2416/2512 23015KT P6SM OVC015
     FM241630 24015KT P6SM -SHRA OVC010
     FM242000 25018G25KT P6SM OVC100
     FM250300 22013KT P6SM SCT120=



000
FTUS45 KBOI 241242 AAB
TAFMYL
TAF AMD
KMYL 241242Z 2413/2512 VRB04KT 6SM -RA BR BKN015 OVC025
     FM241500 29005KT P6SM -RA BKN025 OVC040
     FM242000 29007KT P6SM -SHRA BKN040 OVC080
     FM250200 35006KT P6SM SCT050=



000
FTUS45 KBOI 241242 AAB
TAFMYL
TAF AMD
KMYL 241242Z 2413/2512 VRB04KT 6SM -RA BR BKN015 OVC025
     FM241500 29005KT P6SM -RA BKN025 OVC040
     FM242000 29007KT P6SM -SHRA BKN040 OVC080
     FM250200 35006KT P6SM SCT050=



000
FTUS45 KBOI 241242 AAB
TAFMYL
TAF AMD
KMYL 241242Z 2413/2512 VRB04KT 6SM -RA BR BKN015 OVC025
     FM241500 29005KT P6SM -RA BKN025 OVC040
     FM242000 29007KT P6SM -SHRA BKN040 OVC080
     FM250200 35006KT P6SM SCT050=



000
FTUS45 KBOI 241242 AAB
TAFMYL
TAF AMD
KMYL 241242Z 2413/2512 VRB04KT 6SM -RA BR BKN015 OVC025
     FM241500 29005KT P6SM -RA BKN025 OVC040
     FM242000 29007KT P6SM -SHRA BKN040 OVC080
     FM250200 35006KT P6SM SCT050=



000
FTUS45 KBOI 241212 AAA
TAFMYL
TAF AMD
KMYL 241212Z 2412/2512 VRB04KT 6SM -RA BR FEW015 OVC025
     FM242000 29007KT P6SM -SHRA BKN040 OVC080
     FM250200 35006KT P6SM SCT050=



000
FTUS45 KBOI 241212 AAA
TAFMYL
TAF AMD
KMYL 241212Z 2412/2512 VRB04KT 6SM -RA BR FEW015 OVC025
     FM242000 29007KT P6SM -SHRA BKN040 OVC080
     FM250200 35006KT P6SM SCT050=



000
FTUS45 KBOI 241212 AAA
TAFMYL
TAF AMD
KMYL 241212Z 2412/2512 VRB04KT 6SM -RA BR FEW015 OVC025
     FM242000 29007KT P6SM -SHRA BKN040 OVC080
     FM250200 35006KT P6SM SCT050=



000
FTUS45 KBOI 241212 AAA
TAFMYL
TAF AMD
KMYL 241212Z 2412/2512 VRB04KT 6SM -RA BR FEW015 OVC025
     FM242000 29007KT P6SM -SHRA BKN040 OVC080
     FM250200 35006KT P6SM SCT050=



000
FTUS45 KBOI 241131
TAFTWF
TAF
KTWF 241131Z 2412/2512 21012KT P6SM BKN120
     FM241600 25014G23KT P6SM -SHRA OVC040
     FM242000 27018G26KT P6SM OVC100
     FM250400 20010KT P6SM SCT120=



000
FTUS45 KBOI 241131
TAFBOI
TAF
KBOI 241131Z 2412/2512 31010KT P6SM -SHRA OVC050
     FM241800 31014G20KT P6SM OVC100
     FM250400 33005KT P6SM SCT200=



000
FTUS45 KBOI 241131
TAFBKE
TAF
KBKE 241131Z 2412/2512 32005KT P6SM BKN040
     FM241800 33013G20KT P6SM SCT050 BKN090
     FM250500 VRB05KT P6SM SCT100=



000
FTUS45 KBOI 241131
TAFBNO
TAF
KBNO 241131Z 2412/2512 25007KT P6SM BKN100
     FM241700 26015G22KT P6SM SCT120
     FM250600 30005KT P6SM VCSH SCT050 BKN100=



000
FTUS45 KBOI 241131
TAFJER
TAF
KJER 241131Z 2412/2512 18005KT P6SM BKN120
     FM241600 24012KT P6SM -SHRA OVC040
     FM242000 25018G25KT P6SM OVC100
     FM250300 22013KT P6SM SCT120=



000
FTUS45 KBOI 241131
TAFMYL
TAF
KMYL 241131Z 2412/2512 32005KT 6SM -RA BR OVC015
     FM242000 29007KT P6SM -SHRA BKN040 OVC080
     FM250200 35006KT P6SM SCT050=



000
FTUS45 KBOI 241131
TAFJER
TAF
KJER 241131Z 2412/2512 18005KT P6SM BKN120
     FM241600 24012KT P6SM -SHRA OVC040
     FM242000 25018G25KT P6SM OVC100
     FM250300 22013KT P6SM SCT120=



000
FTUS45 KBOI 241131
TAFBOI
TAF
KBOI 241131Z 2412/2512 31010KT P6SM -SHRA OVC050
     FM241800 31014G20KT P6SM OVC100
     FM250400 33005KT P6SM SCT200=



000
FTUS45 KBOI 241131
TAFTWF
TAF
KTWF 241131Z 2412/2512 21012KT P6SM BKN120
     FM241600 25014G23KT P6SM -SHRA OVC040
     FM242000 27018G26KT P6SM OVC100
     FM250400 20010KT P6SM SCT120=



000
FTUS45 KBOI 241131
TAFBNO
TAF
KBNO 241131Z 2412/2512 25007KT P6SM BKN100
     FM241700 26015G22KT P6SM SCT120
     FM250600 30005KT P6SM VCSH SCT050 BKN100=



000
FTUS45 KBOI 241131
TAFBOI
TAF
KBOI 241131Z 2412/2512 31010KT P6SM -SHRA OVC050
     FM241800 31014G20KT P6SM OVC100
     FM250400 33005KT P6SM SCT200=



000
FTUS45 KBOI 241131
TAFTWF
TAF
KTWF 241131Z 2412/2512 21012KT P6SM BKN120
     FM241600 25014G23KT P6SM -SHRA OVC040
     FM242000 27018G26KT P6SM OVC100
     FM250400 20010KT P6SM SCT120=



000
FTUS45 KBOI 241131
TAFBNO
TAF
KBNO 241131Z 2412/2512 25007KT P6SM BKN100
     FM241700 26015G22KT P6SM SCT120
     FM250600 30005KT P6SM VCSH SCT050 BKN100=



000
FTUS45 KBOI 241131
TAFBKE
TAF
KBKE 241131Z 2412/2512 32005KT P6SM BKN040
     FM241800 33013G20KT P6SM SCT050 BKN090
     FM250500 VRB05KT P6SM SCT100=



000
FTUS45 KBOI 241131
TAFMYL
TAF
KMYL 241131Z 2412/2512 32005KT 6SM -RA BR OVC015
     FM242000 29007KT P6SM -SHRA BKN040 OVC080
     FM250200 35006KT P6SM SCT050=



000
FTUS45 KBOI 241131
TAFBKE
TAF
KBKE 241131Z 2412/2512 32005KT P6SM BKN040
     FM241800 33013G20KT P6SM SCT050 BKN090
     FM250500 VRB05KT P6SM SCT100=



000
FTUS45 KBOI 241131
TAFBNO
TAF
KBNO 241131Z 2412/2512 25007KT P6SM BKN100
     FM241700 26015G22KT P6SM SCT120
     FM250600 30005KT P6SM VCSH SCT050 BKN100=



000
FTUS45 KBOI 241131
TAFJER
TAF
KJER 241131Z 2412/2512 18005KT P6SM BKN120
     FM241600 24012KT P6SM -SHRA OVC040
     FM242000 25018G25KT P6SM OVC100
     FM250300 22013KT P6SM SCT120=



000
FTUS45 KBOI 241131
TAFJER
TAF
KJER 241131Z 2412/2512 18005KT P6SM BKN120
     FM241600 24012KT P6SM -SHRA OVC040
     FM242000 25018G25KT P6SM OVC100
     FM250300 22013KT P6SM SCT120=



000
FTUS45 KBOI 241131
TAFBOI
TAF
KBOI 241131Z 2412/2512 31010KT P6SM -SHRA OVC050
     FM241800 31014G20KT P6SM OVC100
     FM250400 33005KT P6SM SCT200=



000
FTUS45 KBOI 241131
TAFMYL
TAF
KMYL 241131Z 2412/2512 32005KT 6SM -RA BR OVC015
     FM242000 29007KT P6SM -SHRA BKN040 OVC080
     FM250200 35006KT P6SM SCT050=



000
FTUS45 KBOI 241131
TAFMYL
TAF
KMYL 241131Z 2412/2512 32005KT 6SM -RA BR OVC015
     FM242000 29007KT P6SM -SHRA BKN040 OVC080
     FM250200 35006KT P6SM SCT050=



000
FTUS45 KBOI 241131
TAFBKE
TAF
KBKE 241131Z 2412/2512 32005KT P6SM BKN040
     FM241800 33013G20KT P6SM SCT050 BKN090
     FM250500 VRB05KT P6SM SCT100=



000
FTUS45 KBOI 241131
TAFTWF
TAF
KTWF 241131Z 2412/2512 21012KT P6SM BKN120
     FM241600 25014G23KT P6SM -SHRA OVC040
     FM242000 27018G26KT P6SM OVC100
     FM250400 20010KT P6SM SCT120=



000
FTUS45 KBOI 240706 AAB
TAFBOI
TAF AMD
KBOI 240706Z 2407/2506 32013G20KT P6SM OVC100
     FM241000 32008KT P6SM -SHRA OVC050
     FM241800 31010G20KT P6SM OVC100
     FM250100 32006KT P6SM SCT200=



000
FTUS45 KBOI 240706 AAB
TAFBOI
TAF AMD
KBOI 240706Z 2407/2506 32013G20KT P6SM OVC100
     FM241000 32008KT P6SM -SHRA OVC050
     FM241800 31010G20KT P6SM OVC100
     FM250100 32006KT P6SM SCT200=



000
FTUS45 KBOI 240640 AAA
TAFMYL
TAF AMD
KMYL 240640Z 2407/2506 VRB05KT P6SM VCSH OVC060
     FM241200 VRB05KT 6SM -RA BR OVC015
     FM241700 29007KT P6SM SCT060 BKN150=



000
FTUS45 KBOI 240640 AAA
TAFMYL
TAF AMD
KMYL 240640Z 2407/2506 VRB05KT P6SM VCSH OVC060
     FM241200 VRB05KT 6SM -RA BR OVC015
     FM241700 29007KT P6SM SCT060 BKN150=



000
FTUS45 KBOI 240640 AAA
TAFMYL
TAF AMD
KMYL 240640Z 2407/2506 VRB05KT P6SM VCSH OVC060
     FM241200 VRB05KT 6SM -RA BR OVC015
     FM241700 29007KT P6SM SCT060 BKN150=



000
FTUS45 KBOI 240640 AAA
TAFMYL
TAF AMD
KMYL 240640Z 2407/2506 VRB05KT P6SM VCSH OVC060
     FM241200 VRB05KT 6SM -RA BR OVC015
     FM241700 29007KT P6SM SCT060 BKN150=



000
FTUS45 KBOI 240520
TAFTWF
TAF
KTWF 240520Z 2406/2506 20011KT P6SM SCT150
     FM241600 25013G23KT P6SM -SHRA OVC035
     FM242100 26013G23KT P6SM OVC100
     FM250300 21013KT P6SM BKN100=



000
FTUS45 KBOI 240520
TAFTWF
TAF
KTWF 240520Z 2406/2506 20011KT P6SM SCT150
     FM241600 25013G23KT P6SM -SHRA OVC035
     FM242100 26013G23KT P6SM OVC100
     FM250300 21013KT P6SM BKN100=



000
FTUS45 KBOI 240520
TAFBOI
TAF
KBOI 240520Z 2406/2506 32006KT P6SM OVC100
     FM241300 32008KT P6SM -SHRA OVC050
     FM241800 31010G20KT P6SM OVC100
     FM250100 32006KT P6SM SCT200=



000
FTUS45 KBOI 240520
TAFJER
TAF
KJER 240520Z 2406/2506 VRB06KT P6SM SCT200
     FM241600 24015G25KT P6SM -SHRA OVC035
     FM242100 25015G25KT P6SM OVC120
     FM250300 22013KT P6SM BKN100=



000
FTUS45 KBOI 240520
TAFMYL
TAF
KMYL 240520Z 2406/2506 VRB05KT P6SM -SHRA BKN030 OVC060
     FM241200 VRB05KT 6SM -RA BR OVC015
     FM241700 29007KT P6SM SCT060 BKN150=



000
FTUS45 KBOI 240520
TAFBKE
TAF
KBKE 240520Z 2406/2506 VRB06KT P6SM -SHRA OVC040
     FM241200 32010KT P6SM BKN100
      TEMPO 2421/2424 32012G21KT=



000
FTUS45 KBOI 240520
TAFJER
TAF
KJER 240520Z 2406/2506 VRB06KT P6SM SCT200
     FM241600 24015G25KT P6SM -SHRA OVC035
     FM242100 25015G25KT P6SM OVC120
     FM250300 22013KT P6SM BKN100=



000
FTUS45 KBOI 240520
TAFBNO
TAF
KBNO 240520Z 2406/2506 27009KT P6SM SCT060 OVC100
      TEMPO 2408/2412 -SHRA OVC035
     FM241400 27011KT P6SM SCT100 BKN150
      TEMPO 2421/2424 26010G20KT=



000
FTUS45 KBOI 240520
TAFBKE
TAF
KBKE 240520Z 2406/2506 VRB06KT P6SM -SHRA OVC040
     FM241200 32010KT P6SM BKN100
      TEMPO 2421/2424 32012G21KT=



000
FTUS45 KBOI 240520
TAFBOI
TAF
KBOI 240520Z 2406/2506 32006KT P6SM OVC100
     FM241300 32008KT P6SM -SHRA OVC050
     FM241800 31010G20KT P6SM OVC100
     FM250100 32006KT P6SM SCT200=



000
FTUS45 KBOI 240520
TAFBNO
TAF
KBNO 240520Z 2406/2506 27009KT P6SM SCT060 OVC100
      TEMPO 2408/2412 -SHRA OVC035
     FM241400 27011KT P6SM SCT100 BKN150
      TEMPO 2421/2424 26010G20KT=



000
FTUS45 KBOI 240520
TAFMYL
TAF
KMYL 240520Z 2406/2506 VRB05KT P6SM -SHRA BKN030 OVC060
     FM241200 VRB05KT 6SM -RA BR OVC015
     FM241700 29007KT P6SM SCT060 BKN150=



000
FTUS45 KBOI 240109 AAA
TAFJER
TAF AMD
KJER 240109Z 2401/2424 25013KT P6SM FEW200
     FM240400 VRB06KT P6SM SCT200
     FM241600 24015G25KT P6SM -SHRA OVC035=



000
FTUS45 KBOI 240109 AAA
TAFJER
TAF AMD
KJER 240109Z 2401/2424 25013KT P6SM FEW200
     FM240400 VRB06KT P6SM SCT200
     FM241600 24015G25KT P6SM -SHRA OVC035=



000
FTUS45 KBOI 240109 AAA
TAFJER
TAF AMD
KJER 240109Z 2401/2424 25013KT P6SM FEW200
     FM240400 VRB06KT P6SM SCT200
     FM241600 24015G25KT P6SM -SHRA OVC035=



000
FTUS45 KBOI 240109 AAA
TAFJER
TAF AMD
KJER 240109Z 2401/2424 25013KT P6SM FEW200
     FM240400 VRB06KT P6SM SCT200
     FM241600 24015G25KT P6SM -SHRA OVC035=



000
FTUS45 KBOI 240106 AAA
TAFTWF
TAF AMD
KTWF 240106Z 2401/2424 28008KT P6SM FEW200
     FM240400 21010KT P6SM SCT150
     FM241600 25013G23KT P6SM -SHRA OVC035=



000
FTUS45 KBOI 232343
TAFMYL
TAF
KMYL 232343Z 2400/2424 VRB06KT P6SM SCT100
     FM240700 VRB05KT P6SM -SHRA OVC030
     FM241200 VRB05KT 6SM -RA BR OVC015
     FM241900 29007KT P6SM OVC060=



000
FTUS45 KBOI 232343
TAFTWF
TAF
KTWF 232343Z 2400/2424 28011G19KT P6SM FEW200
     FM240300 21010KT P6SM SCT150
     FM241600 25013G23KT P6SM -SHRA OVC035=



000
FTUS45 KBOI 232343
TAFBKE
TAF
KBKE 232343Z 2400/2424 VRB06KT P6SM BKN100
     FM240300 32011KT P6SM -SHRA OVC035
     FM241500 33011KT P6SM BKN070
     FM242000 33013G23KT P6SM BKN100=



000
FTUS45 KBOI 232343
TAFJER
TAF
KJER 232343Z 2400/2424 25013G17KT P6SM FEW200
     FM240100 16008KT P6SM SCT200
     FM241600 24015G25KT P6SM -SHRA OVC035=



000
FTUS45 KBOI 232343
TAFJER
TAF
KJER 232343Z 2400/2424 25013G17KT P6SM FEW200
     FM240100 16008KT P6SM SCT200
     FM241600 24015G25KT P6SM -SHRA OVC035=



000
FTUS45 KBOI 232343
TAFBNO
TAF
KBNO 232343Z 2400/2424 28012KT P6SM OVC100
     FM240700 27007KT P6SM -SHRA OVC035
     FM241200 27011KT P6SM SCT040 BKN150
     FM241600 26013G23KT P6SM SCT100 BKN150=



000
FTUS45 KBOI 232343
TAFBOI
TAF
KBOI 232343Z 2400/2424 31006KT P6SM SCT200
     FM240400 32006KT P6SM OVC100
      TEMPO 2408/2412 32015G25KT
     FM241300 32008KT P6SM -SHRA OVC050
     FM241800 31010G20KT P6SM OVC100=



000
FTUS45 KBOI 232343
TAFMYL
TAF
KMYL 232343Z 2400/2424 VRB06KT P6SM SCT100
     FM240700 VRB05KT P6SM -SHRA OVC030
     FM241200 VRB05KT 6SM -RA BR OVC015
     FM241900 29007KT P6SM OVC060=



000
FTUS45 KBOI 232343
TAFTWF
TAF
KTWF 232343Z 2400/2424 28011G19KT P6SM FEW200
     FM240300 21010KT P6SM SCT150
     FM241600 25013G23KT P6SM -SHRA OVC035=



000
FTUS45 KBOI 232343
TAFJER
TAF
KJER 232343Z 2400/2424 25013G17KT P6SM FEW200
     FM240100 16008KT P6SM SCT200
     FM241600 24015G25KT P6SM -SHRA OVC035=



000
FTUS45 KBOI 232343
TAFBKE
TAF
KBKE 232343Z 2400/2424 VRB06KT P6SM BKN100
     FM240300 32011KT P6SM -SHRA OVC035
     FM241500 33011KT P6SM BKN070
     FM242000 33013G23KT P6SM BKN100=



000
FTUS45 KBOI 232343
TAFBOI
TAF
KBOI 232343Z 2400/2424 31006KT P6SM SCT200
     FM240400 32006KT P6SM OVC100
      TEMPO 2408/2412 32015G25KT
     FM241300 32008KT P6SM -SHRA OVC050
     FM241800 31010G20KT P6SM OVC100=



000
FTUS45 KBOI 232343
TAFBNO
TAF
KBNO 232343Z 2400/2424 28012KT P6SM OVC100
     FM240700 27007KT P6SM -SHRA OVC035
     FM241200 27011KT P6SM SCT040 BKN150
     FM241600 26013G23KT P6SM SCT100 BKN150=



000
FTUS45 KBOI 232343
TAFBNO
TAF
KBNO 232343Z 2400/2424 28012KT P6SM OVC100
     FM240700 27007KT P6SM -SHRA OVC035
     FM241200 27011KT P6SM SCT040 BKN150
     FM241600 26013G23KT P6SM SCT100 BKN150=



000
FTUS45 KBOI 232343
TAFJER
TAF
KJER 232343Z 2400/2424 25013G17KT P6SM FEW200
     FM240100 16008KT P6SM SCT200
     FM241600 24015G25KT P6SM -SHRA OVC035=



000
FTUS45 KBOI 232343
TAFBKE
TAF
KBKE 232343Z 2400/2424 VRB06KT P6SM BKN100
     FM240300 32011KT P6SM -SHRA OVC035
     FM241500 33011KT P6SM BKN070
     FM242000 33013G23KT P6SM BKN100=



000
FTUS45 KBOI 232343
TAFBOI
TAF
KBOI 232343Z 2400/2424 31006KT P6SM SCT200
     FM240400 32006KT P6SM OVC100
      TEMPO 2408/2412 32015G25KT
     FM241300 32008KT P6SM -SHRA OVC050
     FM241800 31010G20KT P6SM OVC100=



000
FTUS45 KBOI 232343
TAFBOI
TAF
KBOI 232343Z 2400/2424 31006KT P6SM SCT200
     FM240400 32006KT P6SM OVC100
      TEMPO 2408/2412 32015G25KT
     FM241300 32008KT P6SM -SHRA OVC050
     FM241800 31010G20KT P6SM OVC100=



000
FTUS45 KBOI 232343
TAFMYL
TAF
KMYL 232343Z 2400/2424 VRB06KT P6SM SCT100
     FM240700 VRB05KT P6SM -SHRA OVC030
     FM241200 VRB05KT 6SM -RA BR OVC015
     FM241900 29007KT P6SM OVC060=



000
FTUS45 KBOI 232343
TAFTWF
TAF
KTWF 232343Z 2400/2424 28011G19KT P6SM FEW200
     FM240300 21010KT P6SM SCT150
     FM241600 25013G23KT P6SM -SHRA OVC035=



000
FTUS45 KBOI 232343
TAFMYL
TAF
KMYL 232343Z 2400/2424 VRB06KT P6SM SCT100
     FM240700 VRB05KT P6SM -SHRA OVC030
     FM241200 VRB05KT 6SM -RA BR OVC015
     FM241900 29007KT P6SM OVC060=



000
FTUS45 KBOI 232343
TAFBKE
TAF
KBKE 232343Z 2400/2424 VRB06KT P6SM BKN100
     FM240300 32011KT P6SM -SHRA OVC035
     FM241500 33011KT P6SM BKN070
     FM242000 33013G23KT P6SM BKN100=



000
FTUS45 KBOI 232343
TAFTWF
TAF
KTWF 232343Z 2400/2424 28011G19KT P6SM FEW200
     FM240300 21010KT P6SM SCT150
     FM241600 25013G23KT P6SM -SHRA OVC035=



000
FTUS45 KBOI 232343
TAFBNO
TAF
KBNO 232343Z 2400/2424 28012KT P6SM OVC100
     FM240700 27007KT P6SM -SHRA OVC035
     FM241200 27011KT P6SM SCT040 BKN150
     FM241600 26013G23KT P6SM SCT100 BKN150=



000
FTUS45 KBOI 232133 AAB
TAFBOI
TAF AMD
KBOI 232133Z 2322/2418 31006KT P6SM SCT200
     FM240400 32006KT P6SM OVC100
      TEMPO 2408/2412 32015G25KT
     FM241200 32008KT P6SM VCSH OVC050
      TEMPO 2414/2418 P6SM -SHRA OVC050=



000
FTUS45 KBOI 232133 AAB
TAFBOI
TAF AMD
KBOI 232133Z 2322/2418 31006KT P6SM SCT200
     FM240400 32006KT P6SM OVC100
      TEMPO 2408/2412 32015G25KT
     FM241200 32008KT P6SM VCSH OVC050
      TEMPO 2414/2418 P6SM -SHRA OVC050=



000
FTUS45 KBOI 232133 AAB
TAFBOI
TAF AMD
KBOI 232133Z 2322/2418 31006KT P6SM SCT200
     FM240400 32006KT P6SM OVC100
      TEMPO 2408/2412 32015G25KT
     FM241200 32008KT P6SM VCSH OVC050
      TEMPO 2414/2418 P6SM -SHRA OVC050=



000
FTUS45 KBOI 232100 AAA
TAFMYL
TAF AMD
KMYL 232100Z 2321/2418 24010KT P6SM FEW200
     FM240700 VRB05KT P6SM VCSH OVC040
     FM240900 VRB05KT P6SM -SHRA OVC020
     FM241200 VRB05KT 6SM -RA BR OVC015=



000
FTUS45 KBOI 232100 AAA
TAFMYL
TAF AMD
KMYL 232100Z 2321/2418 24010KT P6SM FEW200
     FM240700 VRB05KT P6SM VCSH OVC040
     FM240900 VRB05KT P6SM -SHRA OVC020
     FM241200 VRB05KT 6SM -RA BR OVC015=



000
FTUS45 KBOI 231745 CCA
TAFMYL
TAF COR
KMYL 231745Z 2318/2418 VRB05KT P6SM FEW200
     FM240700 VRB05KT P6SM VCSH OVC040
     FM240900 VRB05KT P6SM -SHRA OVC020
     FM241200 VRB05KT 6SM -RA BR OVC015=



000
FTUS45 KBOI 231745 CCA
TAFMYL
TAF COR
KMYL 231745Z 2318/2418 VRB05KT P6SM FEW200
     FM240700 VRB05KT P6SM VCSH OVC040
     FM240900 VRB05KT P6SM -SHRA OVC020
     FM241200 VRB05KT 6SM -RA BR OVC015=



000
FTUS45 KBOI 231745 CCA
TAFMYL
TAF COR
KMYL 231745Z 2318/2418 VRB05KT P6SM FEW200
     FM240700 VRB05KT P6SM VCSH OVC040
     FM240900 VRB05KT P6SM -SHRA OVC020
     FM241200 VRB05KT 6SM -RA BR OVC015=



000
FTUS45 KBOI 231745 CCA
TAFMYL
TAF COR
KMYL 231745Z 2318/2418 VRB05KT P6SM FEW200
     FM240700 VRB05KT P6SM VCSH OVC040
     FM240900 VRB05KT P6SM -SHRA OVC020
     FM241200 VRB05KT 6SM -RA BR OVC015=



000
FTUS45 KBOI 231743 AAA
TAFBNO
TAF AMD
KBNO 231743Z 2318/2418 20008KT P6SM FEW200
     FM240000 28011KT P6SM OVC100
     FM240700 27006KT P6SM -SHRA OVC040
     FM241500 27011KT P6SM SCT070 BKN200=



000
FTUS45 KBOI 231743 AAA
TAFBNO
TAF AMD
KBNO 231743Z 2318/2418 20008KT P6SM FEW200
     FM240000 28011KT P6SM OVC100
     FM240700 27006KT P6SM -SHRA OVC040
     FM241500 27011KT P6SM SCT070 BKN200=



000
FTUS45 KBOI 231743 AAA
TAFBNO
TAF AMD
KBNO 231743Z 2318/2418 20008KT P6SM FEW200
     FM240000 28011KT P6SM OVC100
     FM240700 27006KT P6SM -SHRA OVC040
     FM241500 27011KT P6SM SCT070 BKN200=



000
FTUS45 KBOI 231743 AAA
TAFBNO
TAF AMD
KBNO 231743Z 2318/2418 20008KT P6SM FEW200
     FM240000 28011KT P6SM OVC100
     FM240700 27006KT P6SM -SHRA OVC040
     FM241500 27011KT P6SM SCT070 BKN200=



000
FTUS45 KBOI 231739
TAFBNO
TAF
KBNO 231739Z 2318/2418 23008KT P6SM OVC100
     FM240300 28010KT P6SM -SHRA OVC040
     FM240700 27006KT P6SM VCSH SCT040 BKN060=



000
FTUS45 KBOI 231739
TAFJER
TAF
KJER 231739Z 2318/2418 24010KT P6SM SKC
     FM232000 25013G17KT P6SM FEW200
     FM240100 16008KT P6SM SCT200
     FM241600 24015KT P6SM VCSH OVC040=



000
FTUS45 KBOI 231739
TAFMYL
TAF
KMYL 231739Z 2318/2418 VRB05KT P6SM SCT120
     FM240700 VRB06KT P6SM -SHRA OVC035=



000
FTUS45 KBOI 231739
TAFBKE
TAF
KBKE 231739Z 2318/2418 VRB06KT P6SM BKN200
     FM240300 32010KT P6SM VCSH OVC050
      TEMPO 2405/2409 P6SM -SHRA OVC030
     FM241200 32011KT P6SM VCSH SCT035 BKN050=



000
FTUS45 KBOI 231739
TAFBOI
TAF
KBOI 231739Z 2318/2418 31006KT P6SM SCT200
     FM240400 32006KT P6SM OVC100
     FM241200 32008KT P6SM VCSH OVC050
      TEMPO 2414/2418 P6SM -SHRA OVC050=



000
FTUS45 KBOI 231739
TAFMYL
TAF
KMYL 231739Z 2318/2418 VRB05KT P6SM SCT120
     FM240700 VRB06KT P6SM -SHRA OVC035=



000
FTUS45 KBOI 231739
TAFBOI
TAF
KBOI 231739Z 2318/2418 31006KT P6SM SCT200
     FM240400 32006KT P6SM OVC100
     FM241200 32008KT P6SM VCSH OVC050
      TEMPO 2414/2418 P6SM -SHRA OVC050=



000
FTUS45 KBOI 231739
TAFBNO
TAF
KBNO 231739Z 2318/2418 23008KT P6SM OVC100
     FM240300 28010KT P6SM -SHRA OVC040
     FM240700 27006KT P6SM VCSH SCT040 BKN060=



000
FTUS45 KBOI 231739
TAFTWF
TAF
KTWF 231739Z 2318/2418 26011KT P6SM FEW200
     FM232000 28011G17KT P6SM FEW200
     FM240300 21010KT P6SM SCT150
     FM241600 25015KT P6SM VCSH OVC040=



000
FTUS45 KBOI 231739
TAFJER
TAF
KJER 231739Z 2318/2418 24010KT P6SM SKC
     FM232000 25013G17KT P6SM FEW200
     FM240100 16008KT P6SM SCT200
     FM241600 24015KT P6SM VCSH OVC040=



000
FTUS45 KBOI 231739
TAFBKE
TAF
KBKE 231739Z 2318/2418 VRB06KT P6SM BKN200
     FM240300 32010KT P6SM VCSH OVC050
      TEMPO 2405/2409 P6SM -SHRA OVC030
     FM241200 32011KT P6SM VCSH SCT035 BKN050=



000
FTUS45 KBOI 231739
TAFTWF
TAF
KTWF 231739Z 2318/2418 26011KT P6SM FEW200
     FM232000 28011G17KT P6SM FEW200
     FM240300 21010KT P6SM SCT150
     FM241600 25015KT P6SM VCSH OVC040=



000
FTUS45 KBOI 231129
TAFTWF
TAF
KTWF 231129Z 2312/2412 22012KT P6SM BKN060 OVC100
     FM231700 27015KT P6SM SKC
     FM240300 21006KT P6SM SCT150=



000
FTUS45 KBOI 231129
TAFBOI
TAF
KBOI 231129Z 2312/2412 31006KT P6SM SCT200
     FM240400 32006KT P6SM OVC100
     FM241100 32008KT P6SM -SHRA OVC050=



000
FTUS45 KBOI 231129
TAFMYL
TAF
KMYL 231129Z 2312/2412 VRB05KT P6SM SCT120
     FM240700 VRB06KT P6SM -SHRA OVC035=



000
FTUS45 KBOI 231129
TAFJER
TAF
KJER 231129Z 2312/2412 23013KT P6SM OVC080
     FM231700 27013KT P6SM SKC
     FM240300 22008KT P6SM SCT150=



000
FTUS45 KBOI 231129
TAFJER
TAF
KJER 231129Z 2312/2412 23013KT P6SM OVC080
     FM231700 27013KT P6SM SKC
     FM240300 22008KT P6SM SCT150=



000
FTUS45 KBOI 231129
TAFBNO
TAF
KBNO 231129Z 2312/2412 27006KT P6SM SCT200
     FM231600 23008KT P6SM OVC100
     FM240300 28010KT P6SM -SHRA OVC040
     FM240700 27006KT P6SM VCSH SCT040 BKN060=



000
FTUS45 KBOI 231129
TAFBKE
TAF
KBKE 231129Z 2312/2412 18006KT P6SM SCT200
     FM231700 31008KT P6SM BKN200
     FM240300 32010KT P6SM -SHRA OVC035
     FM240700 31006KT P6SM VCSH SCT035 BKN060=



000
FTUS45 KBOI 231129
TAFBKE
TAF
KBKE 231129Z 2312/2412 18006KT P6SM SCT200
     FM231700 31008KT P6SM BKN200
     FM240300 32010KT P6SM -SHRA OVC035
     FM240700 31006KT P6SM VCSH SCT035 BKN060=



000
FTUS45 KBOI 231129
TAFTWF
TAF
KTWF 231129Z 2312/2412 22012KT P6SM BKN060 OVC100
     FM231700 27015KT P6SM SKC
     FM240300 21006KT P6SM SCT150=



000
FTUS45 KBOI 231129
TAFMYL
TAF
KMYL 231129Z 2312/2412 VRB05KT P6SM SCT120
     FM240700 VRB06KT P6SM -SHRA OVC035=



000
FTUS45 KBOI 231129
TAFBOI
TAF
KBOI 231129Z 2312/2412 31006KT P6SM SCT200
     FM240400 32006KT P6SM OVC100
     FM241100 32008KT P6SM -SHRA OVC050=



000
FTUS45 KBOI 231129
TAFBNO
TAF
KBNO 231129Z 2312/2412 27006KT P6SM SCT200
     FM231600 23008KT P6SM OVC100
     FM240300 28010KT P6SM -SHRA OVC040
     FM240700 27006KT P6SM VCSH SCT040 BKN060=



000
FTUS45 KBOI 230520
TAFBKE
TAF
KBKE 230520Z 2306/2406 30006KT P6SM SCT200
     FM240300 32010KT P6SM VCSH OVC035=



000
FTUS45 KBOI 230520
TAFBNO
TAF
KBNO 230520Z 2306/2406 27005KT P6SM SKC
     FM231600 23008KT P6SM OVC100
     FM240300 28010KT P6SM VCSH OVC035=



000
FTUS45 KBOI 230520
TAFBOI
TAF
KBOI 230520Z 2306/2406 31006KT P6SM SKC=



000
FTUS45 KBOI 230520
TAFTWF
TAF
KTWF 230520Z 2306/2406 22013KT P6SM SCT150
     FM230900 22012G22KT P6SM SCT120
     FM231700 27012KT P6SM SKC
     FM240300 21006KT P6SM SCT150=



000
FTUS45 KBOI 230520
TAFBNO
TAF
KBNO 230520Z 2306/2406 27005KT P6SM SKC
     FM231600 23008KT P6SM OVC100
     FM240300 28010KT P6SM VCSH OVC035=



000
FTUS45 KBOI 230520
TAFBOI
TAF
KBOI 230520Z 2306/2406 31006KT P6SM SKC=



000
FTUS45 KBOI 230520
TAFMYL
TAF
KMYL 230520Z 2306/2406 VRB05KT P6SM SCT120=



000
FTUS45 KBOI 230520
TAFBKE
TAF
KBKE 230520Z 2306/2406 30006KT P6SM SCT200
     FM240300 32010KT P6SM VCSH OVC035=



000
FTUS45 KBOI 230520
TAFBKE
TAF
KBKE 230520Z 2306/2406 30006KT P6SM SCT200
     FM240300 32010KT P6SM VCSH OVC035=



000
FTUS45 KBOI 230520
TAFMYL
TAF
KMYL 230520Z 2306/2406 VRB05KT P6SM SCT120=



000
FTUS45 KBOI 230520
TAFJER
TAF
KJER 230520Z 2306/2406 23013KT P6SM SCT120
     FM230900 23012G22KT P6SM SCT120
     FM231700 27013KT P6SM SKC
     FM240300 22008KT P6SM SCT150=



000
FTUS45 KBOI 230520
TAFJER
TAF
KJER 230520Z 2306/2406 23013KT P6SM SCT120
     FM230900 23012G22KT P6SM SCT120
     FM231700 27013KT P6SM SKC
     FM240300 22008KT P6SM SCT150=



000
FTUS45 KBOI 230520
TAFTWF
TAF
KTWF 230520Z 2306/2406 22013KT P6SM SCT150
     FM230900 22012G22KT P6SM SCT120
     FM231700 27012KT P6SM SKC
     FM240300 21006KT P6SM SCT150=



000
FTUS45 KBOI 230520
TAFMYL
TAF
KMYL 230520Z 2306/2406 VRB05KT P6SM SCT120=



000
FTUS45 KBOI 230520
TAFJER
TAF
KJER 230520Z 2306/2406 23013KT P6SM SCT120
     FM230900 23012G22KT P6SM SCT120
     FM231700 27013KT P6SM SKC
     FM240300 22008KT P6SM SCT150=



000
FTUS45 KBOI 230520
TAFBNO
TAF
KBNO 230520Z 2306/2406 27005KT P6SM SKC
     FM231600 23008KT P6SM OVC100
     FM240300 28010KT P6SM VCSH OVC035=



000
FTUS45 KBOI 230520
TAFBNO
TAF
KBNO 230520Z 2306/2406 27005KT P6SM SKC
     FM231600 23008KT P6SM OVC100
     FM240300 28010KT P6SM VCSH OVC035=



000
FTUS45 KBOI 230520
TAFJER
TAF
KJER 230520Z 2306/2406 23013KT P6SM SCT120
     FM230900 23012G22KT P6SM SCT120
     FM231700 27013KT P6SM SKC
     FM240300 22008KT P6SM SCT150=



000
FTUS45 KBOI 230520
TAFTWF
TAF
KTWF 230520Z 2306/2406 22013KT P6SM SCT150
     FM230900 22012G22KT P6SM SCT120
     FM231700 27012KT P6SM SKC
     FM240300 21006KT P6SM SCT150=



000
FTUS45 KBOI 230520
TAFBOI
TAF
KBOI 230520Z 2306/2406 31006KT P6SM SKC=



000
FTUS45 KBOI 230520
TAFTWF
TAF
KTWF 230520Z 2306/2406 22013KT P6SM SCT150
     FM230900 22012G22KT P6SM SCT120
     FM231700 27012KT P6SM SKC
     FM240300 21006KT P6SM SCT150=



000
FTUS45 KBOI 230520
TAFBOI
TAF
KBOI 230520Z 2306/2406 31006KT P6SM SKC=



000
FTUS45 KBOI 230520
TAFMYL
TAF
KMYL 230520Z 2306/2406 VRB05KT P6SM SCT120=



000
FTUS45 KBOI 230520
TAFBKE
TAF
KBKE 230520Z 2306/2406 30006KT P6SM SCT200
     FM240300 32010KT P6SM VCSH OVC035=



000
FTUS45 KBOI 222326
TAFJER
TAF
KJER 222326Z 2300/2324 25015G22KT P6SM BKN120
     FM230300 23010KT P6SM SCT120
     FM231700 27013KT P6SM SKC=



000
FTUS45 KBOI 222326
TAFBKE
TAF
KBKE 222326Z 2300/2324 33018G28KT P6SM SCT200
     FM230400 30006KT P6SM SKC=



000
FTUS45 KBOI 222326
TAFBOI
TAF
KBOI 222326Z 2300/2324 31012G20KT P6SM SCT150
     FM230300 31006KT P6SM SKC=



000
FTUS45 KBOI 222326
TAFTWF
TAF
KTWF 222326Z 2300/2324 27015G25KT P6SM BKN120
     FM230300 22013KT P6SM SCT120
     FM231700 27012KT P6SM SKC=



000
FTUS45 KBOI 222326
TAFBKE
TAF
KBKE 222326Z 2300/2324 33018G28KT P6SM SCT200
     FM230400 30006KT P6SM SKC=



000
FTUS45 KBOI 222326
TAFBOI
TAF
KBOI 222326Z 2300/2324 31012G20KT P6SM SCT150
     FM230300 31006KT P6SM SKC=



000
FTUS45 KBOI 222326
TAFMYL
TAF
KMYL 222326Z 2300/2324 32007KT P6SM VCSH SCT060 OVC120
     FM230300 VRB05KT P6SM SCT120=



000
FTUS45 KBOI 222326
TAFTWF
TAF
KTWF 222326Z 2300/2324 27015G25KT P6SM BKN120
     FM230300 22013KT P6SM SCT120
     FM231700 27012KT P6SM SKC=



000
FTUS45 KBOI 222326
TAFBNO
TAF
KBNO 222326Z 2300/2324 29017G23KT P6SM SCT150
     FM230300 27007KT P6SM SKC
     FM231800 24013KT P6SM OVC120=



000
FTUS45 KBOI 222326
TAFMYL
TAF
KMYL 222326Z 2300/2324 32007KT P6SM VCSH SCT060 OVC120
     FM230300 VRB05KT P6SM SCT120=



000
FTUS45 KBOI 222326
TAFBNO
TAF
KBNO 222326Z 2300/2324 29017G23KT P6SM SCT150
     FM230300 27007KT P6SM SKC
     FM231800 24013KT P6SM OVC120=



000
FTUS45 KBOI 222326
TAFMYL
TAF
KMYL 222326Z 2300/2324 32007KT P6SM VCSH SCT060 OVC120
     FM230300 VRB05KT P6SM SCT120=



000
FTUS45 KBOI 222326
TAFJER
TAF
KJER 222326Z 2300/2324 25015G22KT P6SM BKN120
     FM230300 23010KT P6SM SCT120
     FM231700 27013KT P6SM SKC=



000
FTUS45 KBOI 222326
TAFBNO
TAF
KBNO 222326Z 2300/2324 29017G23KT P6SM SCT150
     FM230300 27007KT P6SM SKC
     FM231800 24013KT P6SM OVC120=



000
FTUS45 KBOI 222326
TAFTWF
TAF
KTWF 222326Z 2300/2324 27015G25KT P6SM BKN120
     FM230300 22013KT P6SM SCT120
     FM231700 27012KT P6SM SKC=



000
FTUS45 KBOI 222326
TAFBNO
TAF
KBNO 222326Z 2300/2324 29017G23KT P6SM SCT150
     FM230300 27007KT P6SM SKC
     FM231800 24013KT P6SM OVC120=



000
FTUS45 KBOI 222326
TAFMYL
TAF
KMYL 222326Z 2300/2324 32007KT P6SM VCSH SCT060 OVC120
     FM230300 VRB05KT P6SM SCT120=



000
FTUS45 KBOI 222326
TAFJER
TAF
KJER 222326Z 2300/2324 25015G22KT P6SM BKN120
     FM230300 23010KT P6SM SCT120
     FM231700 27013KT P6SM SKC=



000
FTUS45 KBOI 222326
TAFBOI
TAF
KBOI 222326Z 2300/2324 31012G20KT P6SM SCT150
     FM230300 31006KT P6SM SKC=



000
FTUS45 KBOI 222326
TAFTWF
TAF
KTWF 222326Z 2300/2324 27015G25KT P6SM BKN120
     FM230300 22013KT P6SM SCT120
     FM231700 27012KT P6SM SKC=



000
FTUS45 KBOI 222326
TAFBKE
TAF
KBKE 222326Z 2300/2324 33018G28KT P6SM SCT200
     FM230400 30006KT P6SM SKC=



000
FTUS45 KBOI 222326
TAFBOI
TAF
KBOI 222326Z 2300/2324 31012G20KT P6SM SCT150
     FM230300 31006KT P6SM SKC=



000
FTUS45 KBOI 222326
TAFBKE
TAF
KBKE 222326Z 2300/2324 33018G28KT P6SM SCT200
     FM230400 30006KT P6SM SKC=



000
FTUS45 KBOI 222326
TAFJER
TAF
KJER 222326Z 2300/2324 25015G22KT P6SM BKN120
     FM230300 23010KT P6SM SCT120
     FM231700 27013KT P6SM SKC=



000
FTUS45 KBOI 221721
TAFBKE
TAF
KBKE 221721Z 2218/2318 33018G28KT P6SM SCT025 BKN100
     FM230400 30006KT P6SM SKC=



000
FTUS45 KBOI 221721
TAFTWF
TAF
KTWF 221721Z 2218/2318 27012KT P6SM BKN200
     FM222200 28015G25KT P6SM BKN120
     FM230300 22013KT P6SM SCT200=



000
FTUS45 KBOI 221721
TAFMYL
TAF
KMYL 221721Z 2218/2318 32007KT P6SM VCSH SCT060 OVC120
     FM230300 34006KT P6SM SCT120=



000
FTUS45 KBOI 221721
TAFBOI
TAF
KBOI 221721Z 2218/2318 31012G20KT P6SM SCT150
     FM230300 31008KT P6SM SKC=



000
FTUS45 KBOI 221721
TAFJER
TAF
KJER 221721Z 2218/2318 24012KT P6SM BKN200
     FM222200 25015G22KT P6SM BKN120
     FM230300 23008KT P6SM SCT200=



000
FTUS45 KBOI 221721
TAFBNO
TAF
KBNO 221721Z 2218/2318 29011KT P6SM FEW025 SCT150
     FM222200 29017G23KT P6SM SCT150
     FM230300 27007KT P6SM SKC=



000
FTUS45 KBOI 221721
TAFTWF
TAF
KTWF 221721Z 2218/2318 27012KT P6SM BKN200
     FM222200 28015G25KT P6SM BKN120
     FM230300 22013KT P6SM SCT200=



000
FTUS45 KBOI 221721
TAFBOI
TAF
KBOI 221721Z 2218/2318 31012G20KT P6SM SCT150
     FM230300 31008KT P6SM SKC=



000
FTUS45 KBOI 221721
TAFBKE
TAF
KBKE 221721Z 2218/2318 33018G28KT P6SM SCT025 BKN100
     FM230400 30006KT P6SM SKC=



000
FTUS45 KBOI 221721
TAFMYL
TAF
KMYL 221721Z 2218/2318 32007KT P6SM VCSH SCT060 OVC120
     FM230300 34006KT P6SM SCT120=



000
FTUS45 KBOI 221721
TAFTWF
TAF
KTWF 221721Z 2218/2318 27012KT P6SM BKN200
     FM222200 28015G25KT P6SM BKN120
     FM230300 22013KT P6SM SCT200=



000
FTUS45 KBOI 221721
TAFBNO
TAF
KBNO 221721Z 2218/2318 29011KT P6SM FEW025 SCT150
     FM222200 29017G23KT P6SM SCT150
     FM230300 27007KT P6SM SKC=



000
FTUS45 KBOI 221721
TAFJER
TAF
KJER 221721Z 2218/2318 24012KT P6SM BKN200
     FM222200 25015G22KT P6SM BKN120
     FM230300 23008KT P6SM SCT200=



000
FTUS45 KBOI 221721
TAFBOI
TAF
KBOI 221721Z 2218/2318 31012G20KT P6SM SCT150
     FM230300 31008KT P6SM SKC=



000
FTUS45 KBOI 221721
TAFBKE
TAF
KBKE 221721Z 2218/2318 33018G28KT P6SM SCT025 BKN100
     FM230400 30006KT P6SM SKC=



000
FTUS45 KBOI 221721
TAFMYL
TAF
KMYL 221721Z 2218/2318 32007KT P6SM VCSH SCT060 OVC120
     FM230300 34006KT P6SM SCT120=



000
FTUS45 KBOI 221721
TAFBNO
TAF
KBNO 221721Z 2218/2318 29011KT P6SM FEW025 SCT150
     FM222200 29017G23KT P6SM SCT150
     FM230300 27007KT P6SM SKC=



000
FTUS45 KBOI 221721
TAFJER
TAF
KJER 221721Z 2218/2318 24012KT P6SM BKN200
     FM222200 25015G22KT P6SM BKN120
     FM230300 23008KT P6SM SCT200=



    US Dept of Commerce
    National Oceanic and Atmospheric Administration
    National Weather Service
    1325 East West Highway
    Silver Spring, MD 20910
    Page Author: NWS Internet Services Team
Disclaimer
Information Quality
Credits
Glossary
Privacy Policy
Freedom of Information Act (FOIA)
About Us
Career Opportunities